Nearby METAR Reports

 

KSJC - San Jose, California, USA
Distance from station: NE 9mi, 14km
Updated: Sat, 20-Sep-2014 4:39am PDT
Mostly cloudy
Mostly cloudy
 Wind from calm
Wind: Calm
Temperature: 63°F , 17°C
Dew Point: 57°F , 14°C
Humidity: 83%
Barometer: 29.88 inHg , 1011.9 hPa
Clouds: Mostly cloudy
Visibility: 10 miles , 16 km
Cloud details: Mostly cloudy 1200 ft
2014/09/20 11:39 KSJC 201139Z AUTO 00000KT 10SM BKN012 17/14 A2988 RMK AO2
KNUQ - Moffett Nas/Mtn, California, USA
Distance from station: N 9mi, 14km
Updated: Sat, 20-Sep-2014 3:56am PDT
Overcast
Overcast
 Wind from calm
Wind: Calm
Temperature: 66°F , 19°C
Dew Point: 61°F , 16°C
Humidity: 83%
Barometer: 29.89 inHg , 1012.2 hPa
Clouds: Overcast
Visibility: 10 miles , 16 km
Cloud details: Overcast 1100 ft
2014/09/20 10:56 KNUQ 201056Z AUTO 00000KT 10SM OVC011 19/16 A2989 RMK AO2 SLP123 T01940161 TSNO
 
KPAO - Palo Alto, California, USA
Distance from station: NNW 14mi, 23km
Updated: Fri, 19-Sep-2014 8:47pm PDT
NOT Current
Clear
Clear
 Wind from NNW
Wind: NNW 12 mph , 19 km/h
Temperature: 66°F , 19°C
Barometer: 29.88 inHg , 1011.9 hPa
Clouds: Clear
Visibility: 30 miles , 48 km
2014/09/20 03:47 KPAO 200347Z 33010KT 30SM SKC 19/ A2988 RMK LAST
KRHV - San Jose/Reid, California, USA
Distance from station: ENE 12mi, 19km
Updated: Fri, 19-Sep-2014 9:48pm PDT
NOT Current
Clear
Clear
 Wind from WNW
Wind: WNW 9 mph , 15 km/h
Temperature: 72°F , 22°C
Dew Point: 64°F , 18°C
Humidity: 78%
Barometer: 29.89 inHg , 1012.2 hPa
Clouds: Clear
Visibility: 10 miles , 16 km
2014/09/20 04:48 KRHV 200448Z 29008KT 10SM SKC 22/18 A2989 RMK LAST
 
KOAK - Oakland, California, USA
Distance from station: NNW 31mi, 50km
Updated: Sat, 20-Sep-2014 3:53am PDT
Overcast
Overcast
 Wind from WNW
Wind: WNW 5 mph , 7 km/h
Temperature: 63°F , 17°C
Dew Point: 59°F , 15°C
Humidity: 88%
Barometer: 29.89 inHg , 1012.2 hPa
Clouds: Overcast
Visibility: 10 miles , 16 km
Cloud details: Overcast 800 ft
2014/09/20 10:53 KOAK 201053Z 30004KT 10SM OVC008 17/15 A2989 RMK AO2 SLP120 T01720150 $
KSQL - San Carlos Airpo, California, USA
Distance from station: NW 21mi, 34km
Updated: Sat, 20-Sep-2014 4:30am PDT
Overcast
Overcast
 Wind from calm
Wind: Calm
Temperature: 64°F , 18°C
Dew Point: 61°F , 16°C
Humidity: 88%
Barometer: 29.89 inHg , 1012.2 hPa
Clouds: Overcast
Visibility: 10 miles , 16 km
Cloud details: Overcast 1100 ft
2014/09/20 11:30 KSQL 201130Z AUTO 00000KT 10SM OVC011 18/16 A2989 RMK AO2
 
KSFO - San Francisco, California, USA
Distance from station: NW 30mi, 49km
Updated: Sat, 20-Sep-2014 4:52am PDT
Overcast
Overcast
 Wind from W
Wind: W 6 mph , 9 km/h
Temperature: 64°F , 18°C
Dew Point: 61°F , 16°C
Humidity: 88%
Barometer: 29.89 inHg , 1012.2 hPa
Clouds: Overcast
Visibility: 10 miles , 16 km
Cloud details: Overcast 800 ft
2014/09/20 11:52 KSFO 201152Z 28005KT 10SM OVC008 18/16 A2989 RMK AO2 $
KE16 - San Martin, California, USA
Distance from station: ESE 27mi, 43km
Updated: Sat, 20-Sep-2014 4:35am PDT
Mist, Overcast
Mist, Overcast
 Wind from calm
Wind: Calm
Temperature: 59°F , 15°C
Dew Point: 59°F , 15°C
Humidity: 100%
Barometer: 29.90 inHg , 1012.5 hPa
Summary: Mist
Clouds: Overcast
Visibility: 5 miles , 8 km
Cloud details: Overcast 400 ft
2014/09/20 11:35 KE16 201135Z AUTO 00000KT 5SM BR OVC004 15/15 A2990 RMK AO2
 
KWVI - Watsonville, California, USA
Distance from station: SSE 27mi, 44km
Updated: Sat, 20-Sep-2014 3:53am PDT
Overcast
Overcast
 Wind from calm
Wind: Calm
Temperature: 63°F , 17°C
Dew Point: 61°F , 16°C
Humidity: 94%
Barometer: 29.90 inHg , 1012.5 hPa
Clouds: Overcast
Visibility: 9 miles , 14 km
Cloud details: Overcast 300 ft
2014/09/20 10:53 KWVI 201053Z AUTO 00000KT 9SM OVC003 17/16 A2990 RMK AO2 SLP124 T01720156
KHAF - Half Moon Bay, California, USA
Distance from station: WNW 31mi, 50km
Updated: Sat, 20-Sep-2014 4:35am PDT
Mist, Overcast
Mist, Overcast
 Wind from SSE
Wind: SSE 5 mph , 7 km/h
Temperature: 61°F , 16°C
Dew Point: 61°F , 16°C
Humidity: 100%
Barometer: 29.90 inHg , 1012.5 hPa
Summary: Mist
Clouds: Overcast
Visibility: 2 1/2 miles , 2 km
Cloud details: Overcast 300 ft
2014/09/20 11:35 KHAF 201135Z AUTO 15004KT 2 1/2SM BR OVC003 16/16 A2990 RMK AO2
 
KHWD - Hayward, California, USA
Distance from station: N 28mi, 44km
Updated: Sat, 20-Sep-2014 3:54am PDT
Overcast
Overcast
 Wind from calm
Wind: Calm
Temperature: 66°F , 19°C
Dew Point: 63°F , 17°C
Humidity: 88%
Barometer: 29.88 inHg , 1011.9 hPa
Clouds: Overcast
Visibility: 10 miles , 16 km
Cloud details: Overcast 900 ft
2014/09/20 10:54 KHWD 201054Z AUTO 00000KT 10SM OVC009 19/17 A2988 RMK AO2 SLP127 T01940172
KLVK - Livermore, California, USA
Distance from station: NNE 31mi, 51km
Updated: Sat, 20-Sep-2014 4:23am PDT
Mist, Mostly cloudy
Mist, Mostly cloudy
 Wind from W
Wind: W 3 mph , 6 km/h
Temperature: 63°F , 17°C
Dew Point: 59°F , 15°C
Humidity: 88%
Barometer: 29.87 inHg , 1011.5 hPa
Summary: Mist
Clouds: Mostly cloudy
Visibility: 6 miles , 10 km
Cloud details: Mostly cloudy 800 ft
2014/09/20 11:23 KLVK 201123Z AUTO 26003KT 6SM BR BKN008 17/15 A2987 RMK AO2